Corinth, Maine
Current Conditions -  °F | °C
As of 11:53 PM on Sunday 21 Dec 2014 (Local Time) from KBGR Reporting Station
Light Fog Light Fog  
Wind Chill: 20°   Ceiling: 6000
Heat Index: 20°   Visibility: 10mi
Dew Point: 19°   Wind: 0mph
Humidity: 96%   Direction: NA
Pressure: 30.4"   Gusts: NA
Location:  45°N, 69.02°W
Report Text: KBGR 220453Z 00000KT 10SM BCFG SCT032 BKN060 M07/M07 A3040 RMK AO2 SLP298 I1000 T10671072 410111067
Loading
Personal Weather Stations






























Interactive Weather Map New forecast layout! Learn more

10-Day Weather Forecast

Advertisements
Track Severe Weather on mobile